sensor_id;sensor_type;location;lat;lon;timestamp;temperature;humidity
1716;DHT22;855;48.824;9.220;2023-09-19T00:02:21;20.30;85.60
1716;DHT22;855;48.824;9.220;2023-09-19T00:04:48;20.10;86.20
1716;DHT22;855;48.824;9.220;2023-09-19T00:07:15;20.00;86.60
1716;DHT22;855;48.824;9.220;2023-09-19T00:09:43;20.00;87.00
1716;DHT22;855;48.824;9.220;2023-09-19T00:12:09;20.00;87.10
1716;DHT22;855;48.824;9.220;2023-09-19T00:14:38;20.00;87.40
1716;DHT22;855;48.824;9.220;2023-09-19T00:17:05;19.90;87.30
1716;DHT22;855;48.824;9.220;2023-09-19T00:19:36;19.90;87.30
1716;DHT22;855;48.824;9.220;2023-09-19T00:22:03;19.90;87.10
1716;DHT22;855;48.824;9.220;2023-09-19T00:24:30;19.90;87.00
1716;DHT22;855;48.824;9.220;2023-09-19T00:26:57;19.80;87.30
1716;DHT22;855;48.824;9.220;2023-09-19T00:29:25;19.90;87.10
1716;DHT22;855;48.824;9.220;2023-09-19T00:31:55;19.90;87.30
1716;DHT22;855;48.824;9.220;2023-09-19T00:34:22;19.90;87.00
1716;DHT22;855;48.824;9.220;2023-09-19T00:36:52;19.90;87.00
1716;DHT22;855;48.824;9.220;2023-09-19T00:39:20;19.80;87.40
1716;DHT22;855;48.824;9.220;2023-09-19T00:41:47;19.70;87.40
1716;DHT22;855;48.824;9.220;2023-09-19T00:44:14;19.70;87.70
1716;DHT22;855;48.824;9.220;2023-09-19T00:46:43;19.70;87.80
1716;DHT22;855;48.824;9.220;2023-09-19T00:49:12;19.70;87.80
1716;DHT22;855;48.824;9.220;2023-09-19T00:51:40;19.80;87.50
1716;DHT22;855;48.824;9.220;2023-09-19T00:54:13;19.80;87.50
1716;DHT22;855;48.824;9.220;2023-09-19T00:56:44;19.80;87.80
1716;DHT22;855;48.824;9.220;2023-09-19T00:59:11;19.80;87.50
1716;DHT22;855;48.824;9.220;2023-09-19T01:01:39;19.80;87.70
1716;DHT22;855;48.824;9.220;2023-09-19T01:04:06;19.70;87.70
1716;DHT22;855;48.824;9.220;2023-09-19T01:06:33;19.80;87.90
1716;DHT22;855;48.824;9.220;2023-09-19T01:09:02;19.80;87.50
1716;DHT22;855;48.824;9.220;2023-09-19T01:11:35;19.80;87.50
1716;DHT22;855;48.824;9.220;2023-09-19T01:14:12;19.80;87.10
1716;DHT22;855;48.824;9.220;2023-09-19T01:16:47;19.80;87.30
1716;DHT22;855;48.824;9.220;2023-09-19T01:20:01;19.70;87.40
1716;DHT22;855;48.824;9.220;2023-09-19T01:22:40;19.50;88.30
1716;DHT22;855;48.824;9.220;2023-09-19T01:25:43;19.60;88.10
1716;DHT22;855;48.824;9.220;2023-09-19T01:28:31;19.70;87.70
1716;DHT22;855;48.824;9.220;2023-09-19T01:31:04;19.70;87.40
1716;DHT22;855;48.824;9.220;2023-09-19T01:33:57;19.70;87.40
1716;DHT22;855;48.824;9.220;2023-09-19T01:36:25;19.80;87.10
1716;DHT22;855;48.824;9.220;2023-09-19T01:38:53;19.70;87.30
1716;DHT22;855;48.824;9.220;2023-09-19T01:41:26;19.80;87.30
1716;DHT22;855;48.824;9.220;2023-09-19T01:43:56;19.80;87.00
1716;DHT22;855;48.824;9.220;2023-09-19T01:46:33;19.80;87.00
1716;DHT22;855;48.824;9.220;2023-09-19T01:49:25;19.80;87.10
1716;DHT22;855;48.824;9.220;2023-09-19T01:52:02;19.80;87.00
1716;DHT22;855;48.824;9.220;2023-09-19T01:54:33;19.80;86.70
1716;DHT22;855;48.824;9.220;2023-09-19T01:57:09;19.70;86.90
1716;DHT22;855;48.824;9.220;2023-09-19T01:59:41;19.70;87.00
1716;DHT22;855;48.824;9.220;2023-09-19T02:02:12;19.80;86.60
1716;DHT22;855;48.824;9.220;2023-09-19T02:04:40;19.80;86.60
1716;DHT22;855;48.824;9.220;2023-09-19T02:07:07;19.80;86.50
1716;DHT22;855;48.824;9.220;2023-09-19T02:09:34;19.70;86.50
1716;DHT22;855;48.824;9.220;2023-09-19T02:12:04;19.70;86.50
1716;DHT22;855;48.824;9.220;2023-09-19T02:14:31;19.80;86.20
1716;DHT22;855;48.824;9.220;2023-09-19T02:16:58;19.80;86.20
1716;DHT22;855;48.824;9.220;2023-09-19T02:19:27;19.80;85.80
1716;DHT22;855;48.824;9.220;2023-09-19T02:21:56;19.80;85.80
1716;DHT22;855;48.824;9.220;2023-09-19T02:24:23;19.80;85.80
1716;DHT22;855;48.824;9.220;2023-09-19T02:26:52;19.90;85.80
1716;DHT22;855;48.824;9.220;2023-09-19T02:29:20;19.90;85.40
1716;DHT22;855;48.824;9.220;2023-09-19T02:31:47;19.70;85.00
1716;DHT22;855;48.824;9.220;2023-09-19T02:34:14;19.70;85.70
1716;DHT22;855;48.824;9.220;2023-09-19T02:36:43;19.70;85.70
1716;DHT22;855;48.824;9.220;2023-09-19T02:39:11;19.70;85.70
1716;DHT22;855;48.824;9.220;2023-09-19T02:41:38;19.80;85.30
1716;DHT22;855;48.824;9.220;2023-09-19T02:44:07;19.70;85.20
1716;DHT22;855;48.824;9.220;2023-09-19T02:46:34;19.70;85.40
1716;DHT22;855;48.824;9.220;2023-09-19T02:49:01;19.60;85.80
1716;DHT22;855;48.824;9.220;2023-09-19T02:51:30;19.70;85.80
1716;DHT22;855;48.824;9.220;2023-09-19T02:53:59;19.70;85.70
1716;DHT22;855;48.824;9.220;2023-09-19T02:56:25;19.70;85.40
1716;DHT22;855;48.824;9.220;2023-09-19T02:58:52;19.80;85.60
1716;DHT22;855;48.824;9.220;2023-09-19T03:01:20;19.80;85.60
1716;DHT22;855;48.824;9.220;2023-09-19T03:03:47;19.80;85.20
1716;DHT22;855;48.824;9.220;2023-09-19T03:06:14;19.70;85.70
1716;DHT22;855;48.824;9.220;2023-09-19T03:08:45;19.80;85.60
1716;DHT22;855;48.824;9.220;2023-09-19T03:11:15;19.80;85.40
1716;DHT22;855;48.824;9.220;2023-09-19T03:13:50;19.90;85.30
1716;DHT22;855;48.824;9.220;2023-09-19T03:16:17;19.90;84.90
1716;DHT22;855;48.824;9.220;2023-09-19T03:18:44;19.90;84.80
1716;DHT22;855;48.824;9.220;2023-09-19T03:21:13;19.70;85.40
1716;DHT22;855;48.824;9.220;2023-09-19T03:23:40;19.70;85.60
1716;DHT22;855;48.824;9.220;2023-09-19T03:26:07;19.70;85.60
1716;DHT22;855;48.824;9.220;2023-09-19T03:28:35;19.80;85.70
1716;DHT22;855;48.824;9.220;2023-09-19T03:31:03;19.80;85.40
1716;DHT22;855;48.824;9.220;2023-09-19T03:33:30;19.80;85.30
1716;DHT22;855;48.824;9.220;2023-09-19T03:35:58;19.80;85.30
1716;DHT22;855;48.824;9.220;2023-09-19T03:38:26;19.80;85.40
1716;DHT22;855;48.824;9.220;2023-09-19T03:40:54;19.90;85.40
1716;DHT22;855;48.824;9.220;2023-09-19T03:43:21;19.90;85.30
1716;DHT22;855;48.824;9.220;2023-09-19T03:45:49;20.00;85.20
1716;DHT22;855;48.824;9.220;2023-09-19T03:48:16;20.00;85.00
1716;DHT22;855;48.824;9.220;2023-09-19T03:50:43;20.10;84.90
1716;DHT22;855;48.824;9.220;2023-09-19T03:53:10;20.10;84.80
1716;DHT22;855;48.824;9.220;2023-09-19T03:55:37;20.10;84.20
1716;DHT22;855;48.824;9.220;2023-09-19T03:58:05;20.10;84.20
1716;DHT22;855;48.824;9.220;2023-09-19T04:00:32;19.90;84.40
1716;DHT22;855;48.824;9.220;2023-09-19T04:03:01;19.90;84.80
1716;DHT22;855;48.824;9.220;2023-09-19T04:05:31;19.70;85.20
1716;DHT22;855;48.824;9.220;2023-09-19T04:07:59;19.80;85.70
1716;DHT22;855;48.824;9.220;2023-09-19T04:10:26;19.80;86.10
1716;DHT22;855;48.824;9.220;2023-09-19T04:12:53;19.80;86.10
1716;DHT22;855;48.824;9.220;2023-09-19T04:15:21;19.70;86.60
1716;DHT22;855;48.824;9.220;2023-09-19T04:17:48;19.60;87.90
1716;DHT22;855;48.824;9.220;2023-09-19T04:20:17;19.40;88.90
1716;DHT22;855;48.824;9.220;2023-09-19T04:22:45;19.40;88.70
1716;DHT22;855;48.824;9.220;2023-09-19T04:25:11;19.50;89.30
1716;DHT22;855;48.824;9.220;2023-09-19T04:27:38;19.60;89.50
1716;DHT22;855;48.824;9.220;2023-09-19T04:30:06;19.60;89.80
1716;DHT22;855;48.824;9.220;2023-09-19T04:32:37;19.70;89.80
1716;DHT22;855;48.824;9.220;2023-09-19T04:35:06;19.80;89.80
1716;DHT22;855;48.824;9.220;2023-09-19T04:37:38;19.80;89.90
1716;DHT22;855;48.824;9.220;2023-09-19T04:40:07;19.80;89.90
1716;DHT22;855;48.824;9.220;2023-09-19T04:42:38;19.90;89.40
1716;DHT22;855;48.824;9.220;2023-09-19T04:45:06;20.00;89.10
1716;DHT22;855;48.824;9.220;2023-09-19T04:47:34;20.00;88.70
1716;DHT22;855;48.824;9.220;2023-09-19T04:50:00;20.10;88.70
1716;DHT22;855;48.824;9.220;2023-09-19T04:52:30;20.00;88.90
1716;DHT22;855;48.824;9.220;2023-09-19T04:54:59;20.00;89.40
1716;DHT22;855;48.824;9.220;2023-09-19T04:57:25;20.00;90.10
1716;DHT22;855;48.824;9.220;2023-09-19T04:59:53;19.90;90.10
1716;DHT22;855;48.824;9.220;2023-09-19T05:02:20;19.90;90.40
1716;DHT22;855;48.824;9.220;2023-09-19T05:04:47;19.90;91.00
1716;DHT22;855;48.824;9.220;2023-09-19T05:07:14;19.90;91.30
1716;DHT22;855;48.824;9.220;2023-09-19T05:09:42;19.90;91.50
1716;DHT22;855;48.824;9.220;2023-09-19T05:12:10;19.90;91.60
1716;DHT22;855;48.824;9.220;2023-09-19T05:14:37;19.80;91.90
1716;DHT22;855;48.824;9.220;2023-09-19T05:17:06;19.80;92.10
1716;DHT22;855;48.824;9.220;2023-09-19T05:19:33;19.70;92.00
1716;DHT22;855;48.824;9.220;2023-09-19T05:22:00;19.70;91.80
1716;DHT22;855;48.824;9.220;2023-09-19T05:24:29;19.70;91.90
1716;DHT22;855;48.824;9.220;2023-09-19T05:26:56;19.60;91.70
1716;DHT22;855;48.824;9.220;2023-09-19T05:29:25;19.70;91.80
1716;DHT22;855;48.824;9.220;2023-09-19T05:31:51;19.60;91.70
1716;DHT22;855;48.824;9.220;2023-09-19T05:34:20;19.70;91.60
1716;DHT22;855;48.824;9.220;2023-09-19T05:36:47;19.70;91.80
1716;DHT22;855;48.824;9.220;2023-09-19T05:39:14;19.60;92.10
1716;DHT22;855;48.824;9.220;2023-09-19T05:41:41;19.40;92.10
1716;DHT22;855;48.824;9.220;2023-09-19T05:44:08;19.00;91.90
1716;DHT22;855;48.824;9.220;2023-09-19T05:46:36;18.70;91.60
1716;DHT22;855;48.824;9.220;2023-09-19T05:49:03;18.40;92.20
1716;DHT22;855;48.824;9.220;2023-09-19T05:51:30;18.30;92.60
1716;DHT22;855;48.824;9.220;2023-09-19T05:53:57;18.40;92.90
1716;DHT22;855;48.824;9.220;2023-09-19T05:56:24;18.40;93.30
1716;DHT22;855;48.824;9.220;2023-09-19T05:58:51;18.40;92.30
1716;DHT22;855;48.824;9.220;2023-09-19T06:01:18;18.30;92.60
1716;DHT22;855;48.824;9.220;2023-09-19T06:03:47;18.20;92.70
1716;DHT22;855;48.824;9.220;2023-09-19T06:06:13;18.00;92.80
1716;DHT22;855;48.824;9.220;2023-09-19T06:08:40;17.90;92.70
1716;DHT22;855;48.824;9.220;2023-09-19T06:11:09;17.70;93.10
1716;DHT22;855;48.824;9.220;2023-09-19T06:13:37;17.30;92.60
1716;DHT22;855;48.824;9.220;2023-09-19T06:16:04;17.20;93.90
1716;DHT22;855;48.824;9.220;2023-09-19T06:18:31;17.10;94.70
1716;DHT22;855;48.824;9.220;2023-09-19T06:21:00;17.10;94.80
1716;DHT22;855;48.824;9.220;2023-09-19T06:23:33;17.10;94.90
1716;DHT22;855;48.824;9.220;2023-09-19T06:26:00;17.20;94.90
1716;DHT22;855;48.824;9.220;2023-09-19T06:28:27;17.30;95.50
1716;DHT22;855;48.824;9.220;2023-09-19T06:30:54;17.40;95.20
1716;DHT22;855;48.824;9.220;2023-09-19T06:33:21;17.40;94.50
1716;DHT22;855;48.824;9.220;2023-09-19T06:35:48;17.40;94.10
1716;DHT22;855;48.824;9.220;2023-09-19T06:38:19;17.50;94.00
1716;DHT22;855;48.824;9.220;2023-09-19T06:40:46;17.60;93.90
1716;DHT22;855;48.824;9.220;2023-09-19T06:43:13;17.70;93.90
1716;DHT22;855;48.824;9.220;2023-09-19T06:45:40;17.70;93.60
1716;DHT22;855;48.824;9.220;2023-09-19T06:48:08;17.80;93.40
1716;DHT22;855;48.824;9.220;2023-09-19T06:50:35;17.90;93.00
1716;DHT22;855;48.824;9.220;2023-09-19T06:53:02;18.10;92.70
1716;DHT22;855;48.824;9.220;2023-09-19T06:55:31;18.20;92.00
1716;DHT22;855;48.824;9.220;2023-09-19T06:57:58;18.50;92.50
1716;DHT22;855;48.824;9.220;2023-09-19T07:00:24;18.60;91.80
1716;DHT22;855;48.824;9.220;2023-09-19T07:02:55;18.80;90.90
1716;DHT22;855;48.824;9.220;2023-09-19T07:05:24;19.00;91.40
1716;DHT22;855;48.824;9.220;2023-09-19T07:07:51;19.10;90.60
1716;DHT22;855;48.824;9.220;2023-09-19T07:10:17;19.10;89.70
1716;DHT22;855;48.824;9.220;2023-09-19T07:12:46;19.30;90.10
1716;DHT22;855;48.824;9.220;2023-09-19T07:15:13;19.50;89.50
1716;DHT22;855;48.824;9.220;2023-09-19T07:17:40;19.60;88.60
1716;DHT22;855;48.824;9.220;2023-09-19T07:20:08;19.80;88.20
1716;DHT22;855;48.824;9.220;2023-09-19T07:22:36;19.90;87.40
1716;DHT22;855;48.824;9.220;2023-09-19T07:25:05;20.00;86.20
1716;DHT22;855;48.824;9.220;2023-09-19T07:27:32;19.90;86.50
1716;DHT22;855;48.824;9.220;2023-09-19T07:30:00;19.70;86.20
1716;DHT22;855;48.824;9.220;2023-09-19T07:32:27;19.70;87.40
1716;DHT22;855;48.824;9.220;2023-09-19T07:34:54;19.80;86.50
1716;DHT22;855;48.824;9.220;2023-09-19T07:37:21;19.90;85.80
1716;DHT22;855;48.824;9.220;2023-09-19T07:39:51;20.00;85.70
1716;DHT22;855;48.824;9.220;2023-09-19T07:42:18;20.00;84.90
1716;DHT22;855;48.824;9.220;2023-09-19T07:44:45;20.10;84.80
1716;DHT22;855;48.824;9.220;2023-09-19T07:47:16;20.10;84.20
1716;DHT22;855;48.824;9.220;2023-09-19T07:49:45;20.10;84.00
1716;DHT22;855;48.824;9.220;2023-09-19T07:52:13;20.10;83.60
1716;DHT22;855;48.824;9.220;2023-09-19T07:54:41;20.10;84.00
1716;DHT22;855;48.824;9.220;2023-09-19T07:57:09;20.10;84.00
1716;DHT22;855;48.824;9.220;2023-09-19T07:59:37;20.30;83.60
1716;DHT22;855;48.824;9.220;2023-09-19T08:02:04;20.30;82.80
1716;DHT22;855;48.824;9.220;2023-09-19T08:04:35;20.30;82.30
1716;DHT22;855;48.824;9.220;2023-09-19T08:07:02;20.30;81.30
1716;DHT22;855;48.824;9.220;2023-09-19T08:09:31;20.40;82.30
1716;DHT22;855;48.824;9.220;2023-09-19T08:11:59;20.30;81.50
1716;DHT22;855;48.824;9.220;2023-09-19T08:14:29;20.50;82.00
1716;DHT22;855;48.824;9.220;2023-09-19T08:16:57;20.60;82.40
1716;DHT22;855;48.824;9.220;2023-09-19T08:19:24;20.70;80.70
1716;DHT22;855;48.824;9.220;2023-09-19T08:21:56;20.80;80.90
1716;DHT22;855;48.824;9.220;2023-09-19T08:24:24;21.00;80.30
1716;DHT22;855;48.824;9.220;2023-09-19T08:26:53;21.00;78.30
1716;DHT22;855;48.824;9.220;2023-09-19T08:29:20;21.00;79.50
1716;DHT22;855;48.824;9.220;2023-09-19T08:31:46;20.90;79.20
1716;DHT22;855;48.824;9.220;2023-09-19T08:34:15;20.80;79.90
1716;DHT22;855;48.824;9.220;2023-09-19T08:36:42;20.80;79.90
1716;DHT22;855;48.824;9.220;2023-09-19T08:39:14;20.90;79.20
1716;DHT22;855;48.824;9.220;2023-09-19T08:41:40;21.00;80.70
1716;DHT22;855;48.824;9.220;2023-09-19T08:44:07;21.20;80.00
1716;DHT22;855;48.824;9.220;2023-09-19T08:46:37;21.30;78.30
1716;DHT22;855;48.824;9.220;2023-09-19T08:49:12;21.40;77.90
1716;DHT22;855;48.824;9.220;2023-09-19T08:51:44;21.40;79.30
1716;DHT22;855;48.824;9.220;2023-09-19T08:54:19;21.60;78.60
1716;DHT22;855;48.824;9.220;2023-09-19T08:56:50;21.80;76.70
1716;DHT22;855;48.824;9.220;2023-09-19T08:59:21;21.70;76.20
1716;DHT22;855;48.824;9.220;2023-09-19T09:01:49;21.70;76.20
1716;DHT22;855;48.824;9.220;2023-09-19T09:04:19;22.00;76.70
1716;DHT22;855;48.824;9.220;2023-09-19T09:06:46;22.20;77.10
1716;DHT22;855;48.824;9.220;2023-09-19T09:09:14;22.40;74.60
1716;DHT22;855;48.824;9.220;2023-09-19T09:11:42;22.60;73.30
1716;DHT22;855;48.824;9.220;2023-09-19T09:14:09;22.70;69.80
1716;DHT22;855;48.824;9.220;2023-09-19T09:16:36;22.80;68.40
1716;DHT22;855;48.824;9.220;2023-09-19T09:19:04;22.80;68.20
1716;DHT22;855;48.824;9.220;2023-09-19T09:21:31;22.90;67.70
1716;DHT22;855;48.824;9.220;2023-09-19T09:24:28;22.80;66.70
1716;DHT22;855;48.824;9.220;2023-09-19T09:26:57;22.80;66.00
1716;DHT22;855;48.824;9.220;2023-09-19T09:29:44;22.70;64.40
1716;DHT22;855;48.824;9.220;2023-09-19T09:32:22;22.50;65.70
1716;DHT22;855;48.824;9.220;2023-09-19T09:34:51;22.40;64.50
1716;DHT22;855;48.824;9.220;2023-09-19T09:37:18;22.20;65.20
1716;DHT22;855;48.824;9.220;2023-09-19T09:39:53;22.10;66.80
1716;DHT22;855;48.824;9.220;2023-09-19T09:42:32;22.10;67.20
1716;DHT22;855;48.824;9.220;2023-09-19T09:45:14;22.10;65.30
1716;DHT22;855;48.824;9.220;2023-09-19T09:47:42;22.10;66.70
1716;DHT22;855;48.824;9.220;2023-09-19T09:50:26;22.20;66.00
1716;DHT22;855;48.824;9.220;2023-09-19T09:53:05;22.20;65.60
1716;DHT22;855;48.824;9.220;2023-09-19T09:55:57;22.10;66.00
1716;DHT22;855;48.824;9.220;2023-09-19T09:58:26;22.20;64.50
1716;DHT22;855;48.824;9.220;2023-09-19T10:00:56;22.00;63.80
1716;DHT22;855;48.824;9.220;2023-09-19T10:03:31;21.90;64.20
1716;DHT22;855;48.824;9.220;2023-09-19T10:06:05;21.80;63.90
1716;DHT22;855;48.824;9.220;2023-09-19T10:09:03;21.80;64.70
1716;DHT22;855;48.824;9.220;2023-09-19T10:11:41;21.70;64.50
1716;DHT22;855;48.824;9.220;2023-09-19T10:14:10;21.60;64.70
1716;DHT22;855;48.824;9.220;2023-09-19T10:16:40;21.80;64.40
1716;DHT22;855;48.824;9.220;2023-09-19T10:19:08;21.80;64.90
1716;DHT22;855;48.824;9.220;2023-09-19T10:21:36;21.90;66.10
1716;DHT22;855;48.824;9.220;2023-09-19T10:24:05;22.00;64.00
1716;DHT22;855;48.824;9.220;2023-09-19T10:26:36;22.00;64.00
1716;DHT22;855;48.824;9.220;2023-09-19T10:29:06;22.10;64.20
1716;DHT22;855;48.824;9.220;2023-09-19T10:31:38;22.30;64.90
1716;DHT22;855;48.824;9.220;2023-09-19T10:34:08;22.50;64.70
1716;DHT22;855;48.824;9.220;2023-09-19T10:36:36;22.70;64.30
1716;DHT22;855;48.824;9.220;2023-09-19T10:39:05;22.70;61.90
1716;DHT22;855;48.824;9.220;2023-09-19T10:41:35;22.70;61.00
1716;DHT22;855;48.824;9.220;2023-09-19T10:44:03;22.90;60.30
1716;DHT22;855;48.824;9.220;2023-09-19T10:46:31;23.00;61.40
1716;DHT22;855;48.824;9.220;2023-09-19T10:49:00;23.20;60.30
1716;DHT22;855;48.824;9.220;2023-09-19T10:51:30;23.40;58.70
1716;DHT22;855;48.824;9.220;2023-09-19T10:54:04;23.30;57.70
1716;DHT22;855;48.824;9.220;2023-09-19T10:56:34;23.40;57.80
1716;DHT22;855;48.824;9.220;2023-09-19T10:59:06;23.40;57.90
1716;DHT22;855;48.824;9.220;2023-09-19T11:01:42;23.30;58.40
1716;DHT22;855;48.824;9.220;2023-09-19T11:04:27;23.40;58.40
1716;DHT22;855;48.824;9.220;2023-09-19T11:07:05;23.50;57.90
1716;DHT22;855;48.824;9.220;2023-09-19T11:09:43;23.50;57.00
1716;DHT22;855;48.824;9.220;2023-09-19T11:12:11;23.70;57.30
1716;DHT22;855;48.824;9.220;2023-09-19T11:14:40;23.90;56.80
1716;DHT22;855;48.824;9.220;2023-09-19T11:17:33;24.00;54.80
1716;DHT22;855;48.824;9.220;2023-09-19T11:20:25;24.20;54.80
1716;DHT22;855;48.824;9.220;2023-09-19T11:23:20;24.20;56.20
1716;DHT22;855;48.824;9.220;2023-09-19T11:25:52;24.40;57.30
1716;DHT22;855;48.824;9.220;2023-09-19T11:28:43;24.60;55.20
1716;DHT22;855;48.824;9.220;2023-09-19T11:34:42;24.60;53.80
1716;DHT22;855;48.824;9.220;2023-09-19T11:40:46;24.60;53.80
1716;DHT22;855;48.824;9.220;2023-09-19T11:43:38;24.80;53.80
1716;DHT22;855;48.824;9.220;2023-09-19T11:46:07;24.80;51.20
1716;DHT22;855;48.824;9.220;2023-09-19T11:48:33;25.00;51.20
1716;DHT22;855;48.824;9.220;2023-09-19T11:51:13;25.00;49.80
1716;DHT22;855;48.824;9.220;2023-09-19T11:53:49;24.90;51.80
1716;DHT22;855;48.824;9.220;2023-09-19T11:56:21;24.90;49.90
1716;DHT22;855;48.824;9.220;2023-09-19T11:58:50;25.00;50.90
1716;DHT22;855;48.824;9.220;2023-09-19T12:01:22;24.90;50.60
1716;DHT22;855;48.824;9.220;2023-09-19T12:03:54;24.90;51.10
1716;DHT22;855;48.824;9.220;2023-09-19T12:06:22;24.70;51.60
1716;DHT22;855;48.824;9.220;2023-09-19T12:08:49;24.50;50.20
1716;DHT22;855;48.824;9.220;2023-09-19T12:11:21;24.40;51.40
1716;DHT22;855;48.824;9.220;2023-09-19T12:13:49;24.30;50.70
1716;DHT22;855;48.824;9.220;2023-09-19T12:16:19;24.20;50.40
1716;DHT22;855;48.824;9.220;2023-09-19T12:18:49;24.20;50.60
1716;DHT22;855;48.824;9.220;2023-09-19T12:21:27;24.20;51.40
1716;DHT22;855;48.824;9.220;2023-09-19T12:23:58;24.50;51.40
1716;DHT22;855;48.824;9.220;2023-09-19T12:26:27;24.70;51.70
1716;DHT22;855;48.824;9.220;2023-09-19T12:28:55;24.80;53.60
1716;DHT22;855;48.824;9.220;2023-09-19T12:31:23;25.10;52.10
1716;DHT22;855;48.824;9.220;2023-09-19T12:33:53;25.20;51.70
1716;DHT22;855;48.824;9.220;2023-09-19T12:36:21;25.30;50.80
1716;DHT22;855;48.824;9.220;2023-09-19T12:38:54;25.40;50.70
1716;DHT22;855;48.824;9.220;2023-09-19T12:41:21;25.30;50.70
1716;DHT22;855;48.824;9.220;2023-09-19T12:43:50;25.10;50.10
1716;DHT22;855;48.824;9.220;2023-09-19T12:46:20;24.90;50.70
1716;DHT22;855;48.824;9.220;2023-09-19T12:49:16;24.60;51.20
1716;DHT22;855;48.824;9.220;2023-09-19T12:51:45;24.70;51.30
1716;DHT22;855;48.824;9.220;2023-09-19T12:54:12;24.70;51.80
1716;DHT22;855;48.824;9.220;2023-09-19T12:56:41;24.20;52.10
1716;DHT22;855;48.824;9.220;2023-09-19T12:59:12;24.00;52.80
1716;DHT22;855;48.824;9.220;2023-09-19T13:01:40;23.70;53.30
1716;DHT22;855;48.824;9.220;2023-09-19T13:04:14;23.80;53.90
1716;DHT22;855;48.824;9.220;2023-09-19T13:06:44;23.80;53.20
1716;DHT22;855;48.824;9.220;2023-09-19T13:09:11;23.90;52.80
1716;DHT22;855;48.824;9.220;2023-09-19T13:11:40;23.90;52.90
1716;DHT22;855;48.824;9.220;2023-09-19T13:14:20;24.00;53.30
1716;DHT22;855;48.824;9.220;2023-09-19T13:16:56;24.10;53.40
1716;DHT22;855;48.824;9.220;2023-09-19T13:19:40;24.10;53.30
1716;DHT22;855;48.824;9.220;2023-09-19T13:22:37;24.10;54.90
1716;DHT22;855;48.824;9.220;2023-09-19T13:25:08;24.20;53.80
1716;DHT22;855;48.824;9.220;2023-09-19T13:27:40;24.30;52.70
1716;DHT22;855;48.824;9.220;2023-09-19T13:30:09;24.30;51.10
1716;DHT22;855;48.824;9.220;2023-09-19T13:32:36;24.20;52.20
1716;DHT22;855;48.824;9.220;2023-09-19T13:35:04;24.10;52.60
1716;DHT22;855;48.824;9.220;2023-09-19T13:37:34;24.10;53.70
1716;DHT22;855;48.824;9.220;2023-09-19T13:40:01;24.20;53.40
1716;DHT22;855;48.824;9.220;2023-09-19T13:42:30;24.10;53.60
1716;DHT22;855;48.824;9.220;2023-09-19T13:44:57;24.20;53.90
1716;DHT22;855;48.824;9.220;2023-09-19T13:47:25;24.30;53.40
1716;DHT22;855;48.824;9.220;2023-09-19T13:49:52;24.30;52.60
1716;DHT22;855;48.824;9.220;2023-09-19T13:52:19;24.30;53.20
1716;DHT22;855;48.824;9.220;2023-09-19T13:54:47;24.10;53.90
1716;DHT22;855;48.824;9.220;2023-09-19T13:57:14;24.20;53.90
1716;DHT22;855;48.824;9.220;2023-09-19T13:59:42;24.10;54.20
1716;DHT22;855;48.824;9.220;2023-09-19T14:02:08;24.20;54.00
1716;DHT22;855;48.824;9.220;2023-09-19T14:04:36;24.20;54.00
1716;DHT22;855;48.824;9.220;2023-09-19T14:07:03;24.20;54.00
1716;DHT22;855;48.824;9.220;2023-09-19T14:09:30;24.20;54.50
1716;DHT22;855;48.824;9.220;2023-09-19T14:11:57;24.30;54.20
1716;DHT22;855;48.824;9.220;2023-09-19T14:14:24;24.20;53.60
1716;DHT22;855;48.824;9.220;2023-09-19T14:16:51;24.10;54.20
1716;DHT22;855;48.824;9.220;2023-09-19T14:19:18;24.20;54.70
1716;DHT22;855;48.824;9.220;2023-09-19T14:21:47;24.30;54.70
1716;DHT22;855;48.824;9.220;2023-09-19T14:24:17;24.30;53.40
1716;DHT22;855;48.824;9.220;2023-09-19T14:26:44;24.20;53.60
1716;DHT22;855;48.824;9.220;2023-09-19T14:29:11;24.20;53.90
1716;DHT22;855;48.824;9.220;2023-09-19T14:31:38;24.20;53.90
1716;DHT22;855;48.824;9.220;2023-09-19T14:34:06;24.30;54.20
1716;DHT22;855;48.824;9.220;2023-09-19T14:36:35;24.40;53.20
1716;DHT22;855;48.824;9.220;2023-09-19T14:39:05;24.50;54.30
1716;DHT22;855;48.824;9.220;2023-09-19T14:41:33;24.50;53.20
1716;DHT22;855;48.824;9.220;2023-09-19T14:44:02;24.50;52.30
1716;DHT22;855;48.824;9.220;2023-09-19T14:46:29;24.50;52.80
1716;DHT22;855;48.824;9.220;2023-09-19T14:48:56;24.50;52.80
1716;DHT22;855;48.824;9.220;2023-09-19T14:51:25;24.50;52.80
1716;DHT22;855;48.824;9.220;2023-09-19T14:53:53;24.50;52.80
1716;DHT22;855;48.824;9.220;2023-09-19T14:56:21;24.60;52.30
1716;DHT22;855;48.824;9.220;2023-09-19T14:58:49;24.60;52.40
1716;DHT22;855;48.824;9.220;2023-09-19T15:01:17;24.70;52.10
1716;DHT22;855;48.824;9.220;2023-09-19T15:03:44;24.70;52.40
1716;DHT22;855;48.824;9.220;2023-09-19T15:06:12;24.60;50.90
1716;DHT22;855;48.824;9.220;2023-09-19T15:08:40;24.70;51.80
1716;DHT22;855;48.824;9.220;2023-09-19T15:11:11;24.70;51.40
1716;DHT22;855;48.824;9.220;2023-09-19T15:13:41;24.80;51.40
1716;DHT22;855;48.824;9.220;2023-09-19T15:16:08;24.80;50.80
1716;DHT22;855;48.824;9.220;2023-09-19T15:18:36;24.80;51.20
1716;DHT22;855;48.824;9.220;2023-09-19T15:21:03;24.70;50.90
1716;DHT22;855;48.824;9.220;2023-09-19T15:23:30;24.70;51.40
1716;DHT22;855;48.824;9.220;2023-09-19T15:25:58;24.60;50.70
1716;DHT22;855;48.824;9.220;2023-09-19T15:28:25;24.60;50.80
1716;DHT22;855;48.824;9.220;2023-09-19T15:30:59;24.60;50.10
1716;DHT22;855;48.824;9.220;2023-09-19T15:33:26;24.70;50.40
1716;DHT22;855;48.824;9.220;2023-09-19T15:36:00;24.60;50.70
1716;DHT22;855;48.824;9.220;2023-09-19T15:38:28;24.50;50.60
1716;DHT22;855;48.824;9.220;2023-09-19T15:40:54;24.50;51.80
1716;DHT22;855;48.824;9.220;2023-09-19T15:43:21;24.50;51.40
1716;DHT22;855;48.824;9.220;2023-09-19T15:45:49;24.50;50.80
1716;DHT22;855;48.824;9.220;2023-09-19T15:48:18;24.50;50.70
1716;DHT22;855;48.824;9.220;2023-09-19T15:50:47;24.40;51.90
1716;DHT22;855;48.824;9.220;2023-09-19T15:53:13;24.40;51.60
1716;DHT22;855;48.824;9.220;2023-09-19T15:55:42;24.40;51.80
1716;DHT22;855;48.824;9.220;2023-09-19T15:58:10;24.30;51.60
1716;DHT22;855;48.824;9.220;2023-09-19T16:00:40;24.40;53.10
1716;DHT22;855;48.824;9.220;2023-09-19T16:03:07;24.50;53.10
1716;DHT22;855;48.824;9.220;2023-09-19T16:05:37;24.40;52.60
1716;DHT22;855;48.824;9.220;2023-09-19T16:08:06;24.50;52.80
1716;DHT22;855;48.824;9.220;2023-09-19T16:10:34;24.30;52.40
1716;DHT22;855;48.824;9.220;2023-09-19T16:13:03;24.20;52.30
1716;DHT22;855;48.824;9.220;2023-09-19T16:15:30;24.10;52.20
1716;DHT22;855;48.824;9.220;2023-09-19T16:17:56;24.20;52.60
1716;DHT22;855;48.824;9.220;2023-09-19T16:20:23;24.20;52.90
1716;DHT22;855;48.824;9.220;2023-09-19T16:22:52;24.20;53.60
1716;DHT22;855;48.824;9.220;2023-09-19T16:25:18;24.30;53.80
1716;DHT22;855;48.824;9.220;2023-09-19T16:27:45;24.30;53.30
1716;DHT22;855;48.824;9.220;2023-09-19T16:30:12;24.40;52.90
1716;DHT22;855;48.824;9.220;2023-09-19T16:32:39;24.40;53.90
1716;DHT22;855;48.824;9.220;2023-09-19T16:35:06;24.40;53.30
1716;DHT22;855;48.824;9.220;2023-09-19T16:37:34;24.30;53.20
1716;DHT22;855;48.824;9.220;2023-09-19T16:40:06;24.20;53.60
1716;DHT22;855;48.824;9.220;2023-09-19T16:42:34;24.10;53.30